createdAt,value
2022-12-29T00:01:07.633Z,19.63
2022-12-29T00:03:35.266Z,19.48
2022-12-29T00:06:03.780Z,26.92
2022-12-29T00:08:43.054Z,19.10
2022-12-29T00:11:17.128Z,19.73
2022-12-29T00:14:03.513Z,17.98
2022-12-29T00:16:32.324Z,14.00
2022-12-29T00:19:00.292Z,15.70
2022-12-29T00:21:46.925Z,17.40
2022-12-29T00:24:27.804Z,12.20
2022-12-29T00:27:22.835Z,16.65
2022-12-29T00:30:09.381Z,13.18
2022-12-29T00:32:56.124Z,18.92
2022-12-29T00:35:40.822Z,14.15
2022-12-29T00:38:30.379Z,11.02
2022-12-29T00:41:16.492Z,13.10
2022-12-29T00:44:04.108Z,7.53
2022-12-29T00:46:35.354Z,10.73
2022-12-29T00:49:23.845Z,23.90
2022-12-29T00:54:19.276Z,18.67
2022-12-29T00:56:49.750Z,17.73
2022-12-29T00:59:19.493Z,11.45
2022-12-29T01:01:48.910Z,110.93
2022-12-29T01:04:16.566Z,82.80
2022-12-29T01:06:46.323Z,17.15
2022-12-29T01:09:36.642Z,17.13
2022-12-29T01:12:06.358Z,48.65
2022-12-29T01:14:36.163Z,12.68
2022-12-29T01:17:04.953Z,13.85
2022-12-29T01:19:33.709Z,14.45
2022-12-29T01:22:01.889Z,10.73
2022-12-29T01:24:29.389Z,8.93
2022-12-29T01:26:56.804Z,9.15
2022-12-29T01:29:24.335Z,10.27
2022-12-29T01:31:51.851Z,9.55
2022-12-29T01:34:19.373Z,10.55
2022-12-29T01:36:46.839Z,8.57
2022-12-29T01:39:14.626Z,7.30
2022-12-29T01:41:42.579Z,9.32
2022-12-29T01:44:55.615Z,6.32
2022-12-29T01:47:37.478Z,6.75
2022-12-29T01:50:12.481Z,10.15
2022-12-29T01:52:49.045Z,6.85
2022-12-29T01:55:17.130Z,6.28
2022-12-29T01:57:53.914Z,7.75
2022-12-29T02:00:21.685Z,6.35
2022-12-29T02:02:54.473Z,8.93
2022-12-29T02:05:46.572Z,9.20
2022-12-29T02:08:15.178Z,12.77
2022-12-29T02:10:44.676Z,13.35
2022-12-29T02:13:12.115Z,8.75
2022-12-29T02:16:05.555Z,6.22
2022-12-29T02:19:31.310Z,5.28
2022-12-29T02:22:36.091Z,7.03
2022-12-29T02:25:40.469Z,6.35
2022-12-29T02:28:48.097Z,8.38
2022-12-29T02:31:36.394Z,6.13
2022-12-29T02:34:41.434Z,5.50
2022-12-29T02:37:23.406Z,7.57
2022-12-29T02:39:57.986Z,7.30
2022-12-29T02:42:57.814Z,5.47
2022-12-29T02:45:51.437Z,5.28
2022-12-29T02:48:29.030Z,5.22
2022-12-29T02:51:26.631Z,4.70
2022-12-29T02:54:14.414Z,4.32
2022-12-29T02:56:41.897Z,5.10
2022-12-29T02:59:10.593Z,4.22
2022-12-29T03:05:05.833Z,4.85
2022-12-29T03:07:49.706Z,9.88
2022-12-29T03:11:01.557Z,30.80
2022-12-29T03:14:10.319Z,32.70
2022-12-29T03:16:58.081Z,26.23
2022-12-29T03:19:35.951Z,4.00
2022-12-29T03:22:27.909Z,3.85
2022-12-29T03:25:34.493Z,126.60
2022-12-29T03:28:11.634Z,196.70
2022-12-29T03:30:46.577Z,95.85
2022-12-29T03:33:21.893Z,6.03
2022-12-29T03:35:54.848Z,49.97
2022-12-29T03:38:34.525Z,172.15
2022-12-29T03:41:10.640Z,10.20
2022-12-29T03:43:38.721Z,6.43
2022-12-29T03:46:06.814Z,5.15
2022-12-29T03:48:35.266Z,352.27
2022-12-29T03:51:02.721Z,382.02
2022-12-29T03:53:30.350Z,319.58
2022-12-29T03:55:59.017Z,24.75
2022-12-29T03:58:26.695Z,4.22
2022-12-29T04:01:12.643Z,4.22
2022-12-29T04:03:40.499Z,4.80
2022-12-29T04:06:08.825Z,4.45
2022-12-29T04:09:05.620Z,26.52
2022-12-29T04:11:37.195Z,3.50
2022-12-29T04:14:05.169Z,4.13
2022-12-29T04:16:36.706Z,8.95
2022-12-29T04:19:08.543Z,244.68
2022-12-29T04:21:37.493Z,201.55
2022-12-29T04:24:07.743Z,55.08
2022-12-29T04:26:40.203Z,9.05
2022-12-29T04:29:23.783Z,200.77
2022-12-29T04:32:10.363Z,186.63
2022-12-29T04:34:43.226Z,16.58
2022-12-29T04:37:10.939Z,8.27
2022-12-29T04:39:38.441Z,9.93
2022-12-29T04:42:07.550Z,5.00
2022-12-29T04:44:37.634Z,5.65
2022-12-29T04:47:13.186Z,5.47
2022-12-29T04:50:01.129Z,4.93
2022-12-29T04:52:44.627Z,4.60
2022-12-29T04:55:14.837Z,5.05
2022-12-29T04:57:43.333Z,4.78
2022-12-29T05:00:15.483Z,4.97
2022-12-29T05:02:43.314Z,3.80
2022-12-29T05:05:10.929Z,4.03
2022-12-29T05:07:42.937Z,3.63
2022-12-29T05:10:11.551Z,4.28
2022-12-29T05:12:39.689Z,4.95
2022-12-29T05:15:10.242Z,3.72
2022-12-29T05:18:18.843Z,3.33
2022-12-29T05:23:15.641Z,3.95
2022-12-29T05:25:46.693Z,6.65
2022-12-29T05:28:34.359Z,8.05
2022-12-29T05:31:11.627Z,19.13
2022-12-29T05:33:39.495Z,10.07
2022-12-29T05:36:10.995Z,10.77
2022-12-29T05:38:42.899Z,13.35
2022-12-29T05:41:10.728Z,11.40
2022-12-29T05:44:04.216Z,10.15
2022-12-29T05:46:32.046Z,18.55
2022-12-29T05:49:10.792Z,15.60
2022-12-29T05:52:44.404Z,22.58
2022-12-29T05:55:13.015Z,71.00
2022-12-29T05:57:41.554Z,63.28
2022-12-29T06:00:15.673Z,12.23
2022-12-29T06:02:45.632Z,20.25
2022-12-29T06:07:41.886Z,8.38
2022-12-29T06:10:09.776Z,7.88
2022-12-29T06:12:44.710Z,11.27
2022-12-29T06:15:12.228Z,17.63
2022-12-29T06:17:41.820Z,24.58
2022-12-29T06:20:10.902Z,26.38
2022-12-29T06:22:39.615Z,41.10
2022-12-29T06:25:08.128Z,43.17
2022-12-29T06:27:36.402Z,15.13
2022-12-29T06:30:04.629Z,15.57
2022-12-29T06:32:32.156Z,9.60
2022-12-29T06:35:09.469Z,11.18
2022-12-29T06:37:41.706Z,6.25
2022-12-29T06:40:10.084Z,8.45
2022-12-29T06:43:06.609Z,8.88
2022-12-29T06:45:41.381Z,6.07
2022-12-29T06:50:36.288Z,81.80
2022-12-29T06:53:04.355Z,7.38
2022-12-29T06:55:31.935Z,56.78
2022-12-29T06:57:59.960Z,144.57
2022-12-29T07:00:27.569Z,80.47
2022-12-29T07:02:57.953Z,14.40
2022-12-29T07:05:28.625Z,13.27
2022-12-29T07:07:56.621Z,5.18
2022-12-29T07:10:24.361Z,5.53
2022-12-29T07:12:51.763Z,5.97
2022-12-29T07:15:19.258Z,5.37
2022-12-29T07:17:46.642Z,17.02
2022-12-29T07:20:14.145Z,29.97
2022-12-29T07:22:41.589Z,25.77
2022-12-29T07:25:09.730Z,357.15
2022-12-29T07:30:04.939Z,352.47
2022-12-29T07:35:03.383Z,333.38
2022-12-29T07:39:58.217Z,238.05
2022-12-29T07:42:25.763Z,345.42
2022-12-29T07:47:51.511Z,304.95
2022-12-29T07:50:18.967Z,328.40
2022-12-29T07:52:48.021Z,335.63
2022-12-29T07:55:17.070Z,319.23
2022-12-29T07:57:44.619Z,328.92
2022-12-29T08:00:12.816Z,309.20
2022-12-29T08:02:40.653Z,322.15
2022-12-29T08:05:08.625Z,322.33
2022-12-29T08:07:36.145Z,331.45
2022-12-29T08:10:04.397Z,339.42
2022-12-29T08:12:32.020Z,356.50
2022-12-29T08:17:26.714Z,286.75
2022-12-29T08:19:54.173Z,268.60
2022-12-29T08:22:21.597Z,269.33
2022-12-29T08:24:49.194Z,262.13
2022-12-29T08:29:49.242Z,250.60
2022-12-29T08:32:17.397Z,286.38
2022-12-29T08:34:45.030Z,269.17
2022-12-29T08:39:40.024Z,312.00
2022-12-29T08:42:07.430Z,307.30
2022-12-29T08:44:34.882Z,298.00
2022-12-29T08:47:02.426Z,294.20
2022-12-29T08:49:29.872Z,276.88
2022-12-29T08:51:57.357Z,268.42
2022-12-29T08:54:24.815Z,259.60
2022-12-29T08:56:52.760Z,282.65
2022-12-29T08:59:22.217Z,273.85
2022-12-29T09:01:50.033Z,284.52
2022-12-29T09:04:18.389Z,286.20
2022-12-29T09:06:46.594Z,304.05
2022-12-29T09:09:14.450Z,300.83
2022-12-29T09:11:43.137Z,331.55
2022-12-29T09:14:10.726Z,326.73
2022-12-29T09:16:39.129Z,342.77
2022-12-29T09:21:33.824Z,308.38
2022-12-29T09:24:01.281Z,299.63
2022-12-29T09:26:28.638Z,255.60
2022-12-29T09:28:56.064Z,209.33
2022-12-29T09:31:23.623Z,313.00
2022-12-29T09:33:51.104Z,187.30
2022-12-29T09:36:18.624Z,239.05
2022-12-29T09:38:46.056Z,196.52
2022-12-29T09:41:35.755Z,213.98
2022-12-29T09:44:24.184Z,154.90
2022-12-29T09:46:55.196Z,166.43
2022-12-29T09:49:32.085Z,119.53
2022-12-29T09:52:12.177Z,115.95
2022-12-29T09:55:06.529Z,96.20
2022-12-29T09:57:57.485Z,96.90
2022-12-29T10:00:55.913Z,97.88
2022-12-29T10:03:34.748Z,113.57
2022-12-29T10:06:21.094Z,92.47
2022-12-29T10:09:29.656Z,71.10
2022-12-29T10:12:51.307Z,75.32
2022-12-29T10:15:49.131Z,66.60
2022-12-29T10:18:50.048Z,75.45
2022-12-29T10:21:23.931Z,82.47
2022-12-29T10:23:54.094Z,80.68
2022-12-29T10:26:31.192Z,86.30
2022-12-29T10:29:12.436Z,94.45
2022-12-29T10:31:55.290Z,86.55
2022-12-29T10:34:33.441Z,111.57
2022-12-29T10:37:18.227Z,89.80
2022-12-29T10:39:53.238Z,87.38
2022-12-29T10:42:30.652Z,73.18
2022-12-29T10:45:00.455Z,74.75
2022-12-29T10:47:38.392Z,84.32
2022-12-29T10:50:06.812Z,66.05
2022-12-29T10:52:38.791Z,30.75
2022-12-29T10:55:16.580Z,36.08
2022-12-29T10:57:48.525Z,35.60
2022-12-29T11:00:23.506Z,38.90
2022-12-29T11:03:29.222Z,54.35
2022-12-29T11:06:13.540Z,47.13
2022-12-29T11:09:03.478Z,42.60
2022-12-29T11:11:37.673Z,30.50
2022-12-29T11:14:19.691Z,54.78
2022-12-29T11:17:02.870Z,37.17
2022-12-29T11:19:40.524Z,51.22
2022-12-29T11:22:24.028Z,29.67
2022-12-29T11:24:53.924Z,26.15
2022-12-29T11:27:25.392Z,65.88
2022-12-29T11:29:55.196Z,49.33
2022-12-29T11:32:33.126Z,50.83
2022-12-29T11:35:01.915Z,47.38
2022-12-29T11:37:40.906Z,40.92
2022-12-29T11:40:20.878Z,50.97
2022-12-29T11:42:55.611Z,43.78
2022-12-29T11:45:33.478Z,38.95
2022-12-29T11:48:30.565Z,41.35
2022-12-29T11:51:03.259Z,32.30
2022-12-29T11:53:54.416Z,41.30
2022-12-29T11:56:43.493Z,38.03
2022-12-29T11:59:30.873Z,35.50
2022-12-29T12:02:03.213Z,39.30
2022-12-29T12:04:38.303Z,33.15
2022-12-29T12:07:08.658Z,35.35
2022-12-29T12:09:59.071Z,48.28
2022-12-29T12:12:53.264Z,56.30
2022-12-29T12:15:50.079Z,58.08
2022-12-29T12:18:38.323Z,53.35
2022-12-29T12:21:18.400Z,56.15
2022-12-29T12:24:19.013Z,63.47
2022-12-29T12:26:49.469Z,50.72
2022-12-29T12:29:39.519Z,61.40
2022-12-29T12:32:22.147Z,79.40
2022-12-29T12:34:51.139Z,61.47
2022-12-29T12:37:49.686Z,57.95
2022-12-29T12:40:40.107Z,73.70
2022-12-29T12:43:38.480Z,56.90
2022-12-29T12:46:24.094Z,59.13
2022-12-29T12:49:06.451Z,57.53
2022-12-29T12:52:14.299Z,53.83
2022-12-29T12:55:07.533Z,50.85
2022-12-29T12:58:14.859Z,40.72
2022-12-29T13:01:15.873Z,43.38
2022-12-29T13:04:22.667Z,49.08
2022-12-29T13:07:15.561Z,61.23
2022-12-29T13:10:05.890Z,55.67
2022-12-29T13:12:45.727Z,57.03
2022-12-29T13:15:59.174Z,60.97
2022-12-29T13:18:47.641Z,53.03
2022-12-29T13:22:05.657Z,56.17
2022-12-29T13:25:15.973Z,61.95
2022-12-29T13:28:21.498Z,71.15
2022-12-29T13:31:05.774Z,64.60
2022-12-29T13:33:58.889Z,69.30
2022-12-29T13:36:40.759Z,55.15
2022-12-29T13:39:26.254Z,57.08
2022-12-29T13:41:59.149Z,53.10
2022-12-29T13:44:37.074Z,86.00
2022-12-29T13:49:45.279Z,49.63
2022-12-29T13:52:44.603Z,51.17
2022-12-29T13:55:38.473Z,44.72
2022-12-29T13:58:46.777Z,47.83
2022-12-29T14:01:55.632Z,36.03
2022-12-29T14:04:30.888Z,27.33
2022-12-29T14:07:15.971Z,27.98
2022-12-29T14:09:53.669Z,43.65
2022-12-29T14:12:31.143Z,32.42
2022-12-29T14:15:23.123Z,36.58
2022-12-29T14:18:17.742Z,40.03
2022-12-29T14:21:01.004Z,68.32
2022-12-29T14:23:43.541Z,76.55
2022-12-29T14:26:31.281Z,72.70
2022-12-29T14:29:22.577Z,76.72
2022-12-29T14:31:51.250Z,48.83
2022-12-29T14:34:21.482Z,30.70
2022-12-29T14:37:04.379Z,39.92
2022-12-29T14:39:37.876Z,34.53
2022-12-29T14:42:20.024Z,26.25
2022-12-29T14:44:47.393Z,28.00
2022-12-29T14:47:31.321Z,34.47
2022-12-29T14:50:20.706Z,24.83
2022-12-29T14:53:05.108Z,48.88
2022-12-29T14:55:56.085Z,32.97
2022-12-29T14:58:59.439Z,28.42
2022-12-29T15:01:49.491Z,13.05
2022-12-29T15:04:26.407Z,87.55
2022-12-29T15:06:55.261Z,397.30
2022-12-29T15:09:39.747Z,154.85
2022-12-29T15:12:20.898Z,85.25
2022-12-29T15:14:55.335Z,65.35
2022-12-29T15:17:34.049Z,60.85
2022-12-29T15:20:18.064Z,44.05
2022-12-29T15:22:51.340Z,56.13
2022-12-29T15:25:19.400Z,143.82
2022-12-29T15:28:04.590Z,205.63
2022-12-29T15:30:32.493Z,130.68
2022-12-29T15:32:59.978Z,143.52
2022-12-29T15:35:38.528Z,143.87
2022-12-29T15:38:29.741Z,155.73
2022-12-29T15:41:20.237Z,139.00
2022-12-29T15:44:09.652Z,123.05
2022-12-29T15:46:38.124Z,143.95
2022-12-29T15:49:09.515Z,200.52
2022-12-29T15:51:41.327Z,149.90
2022-12-29T15:54:22.890Z,163.68
2022-12-29T15:56:51.129Z,150.23
2022-12-29T15:59:35.342Z,155.02
2022-12-29T16:02:10.165Z,164.13
2022-12-29T16:05:01.556Z,170.25
2022-12-29T16:07:40.794Z,169.02
2022-12-29T16:10:34.586Z,198.88
2022-12-29T16:13:22.126Z,181.20
2022-12-29T16:16:03.756Z,183.70
2022-12-29T16:18:38.492Z,179.73
2022-12-29T16:21:22.818Z,164.68
2022-12-29T16:23:55.604Z,146.07
2022-12-29T16:26:27.639Z,138.68
2022-12-29T16:29:08.232Z,135.48
2022-12-29T16:31:50.775Z,194.32
2022-12-29T16:34:28.964Z,158.57
2022-12-29T16:37:06.397Z,106.57
2022-12-29T16:39:40.917Z,116.03
2022-12-29T16:42:39.420Z,108.55
2022-12-29T16:45:22.427Z,92.00
2022-12-29T16:48:14.645Z,75.85
2022-12-29T16:50:44.923Z,95.53
2022-12-29T16:53:27.864Z,86.10
2022-12-29T16:56:01.518Z,76.07
2022-12-29T16:58:32.533Z,93.20
2022-12-29T17:01:03.643Z,75.30
2022-12-29T17:03:53.541Z,95.00
2022-12-29T17:06:24.276Z,68.97
2022-12-29T17:08:53.395Z,69.97
2022-12-29T17:11:57.709Z,71.38
2022-12-29T17:14:53.735Z,63.10
2022-12-29T17:17:37.001Z,70.45
2022-12-29T17:20:19.893Z,92.97
2022-12-29T17:22:48.707Z,204.98
2022-12-29T17:25:22.096Z,78.78
2022-12-29T17:27:56.645Z,81.32
2022-12-29T17:30:32.857Z,88.10
2022-12-29T17:33:04.480Z,75.13
2022-12-29T17:35:31.875Z,80.40
2022-12-29T17:37:59.460Z,86.35
2022-12-29T17:40:33.891Z,67.22
2022-12-29T17:43:03.645Z,58.72
2022-12-29T17:45:32.833Z,55.10
2022-12-29T17:48:01.867Z,81.68
2022-12-29T17:50:34.521Z,92.40
2022-12-29T17:53:12.323Z,69.00
2022-12-29T17:55:40.411Z,61.83
2022-12-29T17:58:27.111Z,59.58
2022-12-29T18:01:01.142Z,83.00
2022-12-29T18:03:40.770Z,78.28
2022-12-29T18:06:11.776Z,68.90
2022-12-29T18:08:41.387Z,87.38
2022-12-29T18:11:25.905Z,61.00
2022-12-29T18:13:54.881Z,66.95
2022-12-29T18:16:25.357Z,87.88
2022-12-29T18:18:52.855Z,99.78
2022-12-29T18:21:23.004Z,87.43
2022-12-29T18:23:51.396Z,85.53
2022-12-29T18:26:27.754Z,38.70
2022-12-29T18:28:59.348Z,39.33
2022-12-29T18:31:31.035Z,47.55
2022-12-29T18:34:02.231Z,61.78
2022-12-29T18:36:30.079Z,48.30
2022-12-29T18:38:57.459Z,44.30
2022-12-29T18:41:31.084Z,37.75
2022-12-29T18:44:01.380Z,38.70
2022-12-29T18:46:28.951Z,65.57
2022-12-29T18:48:56.576Z,76.63
2022-12-29T18:51:25.962Z,76.07
2022-12-29T18:53:57.832Z,66.53
2022-12-29T18:56:25.523Z,84.20
2022-12-29T18:58:53.668Z,53.50
2022-12-29T19:01:23.532Z,33.97
2022-12-29T19:03:51.518Z,24.23
2022-12-29T19:06:21.001Z,22.83
2022-12-29T19:08:48.702Z,18.83
2022-12-29T19:11:16.321Z,20.25
2022-12-29T19:13:43.878Z,24.30
2022-12-29T19:16:20.121Z,29.77
2022-12-29T19:18:58.562Z,22.13
2022-12-29T19:21:36.863Z,22.38
2022-12-29T19:24:04.949Z,28.40
2022-12-29T19:26:37.105Z,29.52
2022-12-29T19:29:08.291Z,54.13
2022-12-29T19:31:40.321Z,54.55
2022-12-29T19:34:10.591Z,55.67
2022-12-29T19:36:38.107Z,64.68
2022-12-29T19:39:06.059Z,47.13
2022-12-29T19:41:33.551Z,54.63
2022-12-29T19:44:01.038Z,55.45
2022-12-29T19:46:31.671Z,64.67
2022-12-29T19:49:00.108Z,55.78
2022-12-29T19:51:29.782Z,42.85
2022-12-29T19:53:58.561Z,42.85
2022-12-29T19:56:28.368Z,56.20
2022-12-29T19:58:57.508Z,60.15
2022-12-29T20:01:26.193Z,49.22
2022-12-29T20:03:53.792Z,30.08
2022-12-29T20:06:23.769Z,27.20
2022-12-29T20:08:51.352Z,34.38
2022-12-29T20:11:19.517Z,18.63
2022-12-29T20:13:47.525Z,19.88
2022-12-29T20:16:20.487Z,8.90
2022-12-29T20:18:49.315Z,9.18
2022-12-29T20:21:20.797Z,12.43
2022-12-29T20:23:49.591Z,14.82
2022-12-29T20:26:22.525Z,18.42
2022-12-29T20:28:51.014Z,21.80
2022-12-29T20:33:50.253Z,48.05
2022-12-29T20:36:22.576Z,37.90
2022-12-29T20:38:52.946Z,32.03
2022-12-29T20:41:22.435Z,21.88
2022-12-29T20:43:51.317Z,16.10
2022-12-29T20:46:21.829Z,14.60
2022-12-29T20:48:51.459Z,16.20
2022-12-29T20:51:24.555Z,40.78
2022-12-29T20:53:52.735Z,26.90
2022-12-29T20:56:25.472Z,27.05
2022-12-29T21:01:42.585Z,22.70
2022-12-29T21:04:10.144Z,24.52
2022-12-29T21:06:38.461Z,53.93
2022-12-29T21:09:06.494Z,18.65
2022-12-29T21:11:35.959Z,17.52
2022-12-29T21:14:03.655Z,9.50
2022-12-29T21:16:31.066Z,10.43
2022-12-29T21:18:58.806Z,15.90
2022-12-29T21:21:26.548Z,11.63
2022-12-29T21:23:55.051Z,22.55
2022-12-29T21:28:51.977Z,67.07
2022-12-29T21:31:26.481Z,69.38
2022-12-29T21:33:55.334Z,75.68
2022-12-29T21:36:24.166Z,100.65
2022-12-29T21:38:51.972Z,59.65
2022-12-29T21:41:20.551Z,19.17
2022-12-29T21:44:07.394Z,76.38
2022-12-29T21:46:38.926Z,17.23
2022-12-29T21:49:07.799Z,26.50
2022-12-29T21:51:51.658Z,21.65
2022-12-29T21:54:45.029Z,31.98
2022-12-29T21:57:34.178Z,24.83
2022-12-29T22:00:20.571Z,76.45
2022-12-29T22:03:06.425Z,18.10
2022-12-29T22:05:52.702Z,53.38
2022-12-29T22:08:38.847Z,86.18
2022-12-29T22:11:27.118Z,33.67
2022-12-29T22:16:25.329Z,43.30
2022-12-29T22:18:53.293Z,39.00
2022-12-29T22:21:20.804Z,32.47
2022-12-29T22:23:48.198Z,30.33
2022-12-29T22:26:16.702Z,24.10
2022-12-29T22:28:48.276Z,17.67
2022-12-29T22:31:28.988Z,31.25
2022-12-29T22:33:58.979Z,28.45
2022-12-29T22:36:27.762Z,26.88
2022-12-29T22:38:55.503Z,23.42
2022-12-29T22:41:23.322Z,25.13
2022-12-29T22:43:53.113Z,23.15
2022-12-29T22:46:23.295Z,20.58
2022-12-29T22:48:50.868Z,18.75
2022-12-29T22:51:18.577Z,30.90
2022-12-29T22:53:49.897Z,40.58
2022-12-29T22:56:17.832Z,28.50
2022-12-29T22:58:48.462Z,32.17
2022-12-29T23:01:19.341Z,35.38
2022-12-29T23:03:47.204Z,31.08
2022-12-29T23:06:17.233Z,29.95
2022-12-29T23:08:47.394Z,38.92
2022-12-29T23:11:14.885Z,40.10
2022-12-29T23:13:45.049Z,47.00
2022-12-29T23:16:15.039Z,72.57
2022-12-29T23:18:44.657Z,66.50
2022-12-29T23:21:12.792Z,74.35
2022-12-29T23:24:03.928Z,61.72
2022-12-29T23:26:38.815Z,55.22
2022-12-29T23:29:10.314Z,52.45
2022-12-29T23:31:38.927Z,103.82
2022-12-29T23:36:36.286Z,70.22
2022-12-29T23:41:32.436Z,21.13
2022-12-29T23:44:00.055Z,22.27
2022-12-29T23:46:29.782Z,19.27
2022-12-29T23:48:57.782Z,21.35
2022-12-29T23:51:25.376Z,16.50
2022-12-29T23:53:52.792Z,17.77
2022-12-29T23:56:23.536Z,18.48
2022-12-29T23:58:52.125Z,18.73
